Time;durP1;ratioP1;P1;durP2;ratioP2;P2;SDS_P1;SDS_P2;PMS_P1;PMS_P2;Temp;Humidity;BMP_temperature;BMP_pressure;BME280_temperature;BME280_humidity;BME280_pressure;Samples;Min_cycle;Max_cycle;Signal;HPM_P1;HPM_P2
2021/10/29 00:00:38;;;;;;;114.70;17.92;;;;;;;6.58;100.00;96399.66;5017525;28;20829;-57
2021/10/29 00:03:07;;;;;;;100.60;16.92;;;;;;;6.72;100.00;96383.66;5021004;28;20088;-52
2021/10/29 00:05:40;;;;;;;68.97;16.25;;;;;;;6.74;100.00;96391.41;5016735;28;20505;-58
2021/10/29 00:08:09;;;;;;;40.70;15.48;;;;;;;6.66;100.00;96381.53;5029404;28;20463;-57
2021/10/29 00:10:37;;;;;;;60.80;15.88;;;;;;;6.53;100.00;96380.84;5030130;28;20061;-53
2021/10/29 00:13:06;;;;;;;76.90;15.32;;;;;;;5.90;100.00;96390.94;5017060;28;20061;-55
2021/10/29 00:15:35;;;;;;;68.55;15.77;;;;;;;5.82;100.00;96381.06;5011091;28;20100;-54
2021/10/29 00:18:04;;;;;;;78.60;15.85;;;;;;;6.11;100.00;96378.03;5020379;28;20079;-50
2021/10/29 00:20:33;;;;;;;67.25;15.38;;;;;;;5.70;100.00;96374.97;5034006;28;20519;-55
2021/10/29 00:23:02;;;;;;;81.15;16.08;;;;;;;6.27;100.00;96369.81;5027950;28;20550;-53
2021/10/29 00:25:31;;;;;;;59.15;15.20;;;;;;;6.15;100.00;96367.19;5030177;28;20183;-54
2021/10/29 00:28:00;;;;;;;59.65;14.65;;;;;;;5.78;100.00;96378.78;5039573;28;20083;-55
2021/10/29 00:30:28;;;;;;;73.38;16.40;;;;;;;6.14;100.00;96377.78;5031532;28;20088;-52
2021/10/29 00:32:57;;;;;;;65.10;16.70;;;;;;;6.55;100.00;96366.66;5021731;28;20085;-55
2021/10/29 00:35:26;;;;;;;75.13;15.45;;;;;;;6.31;100.00;96371.22;5016824;28;20070;-58
2021/10/29 00:37:54;;;;;;;45.47;15.48;;;;;;;6.37;100.00;96368.97;5033125;28;20069;-55
2021/10/29 00:40:24;;;;;;;58.38;16.65;;;;;;;6.20;100.00;96368.63;5032025;28;20073;-53
2021/10/29 00:42:52;;;;;;;45.05;16.70;;;;;;;6.09;100.00;96366.81;5035374;28;20068;-49
2021/10/29 00:45:21;;;;;;;49.95;15.50;;;;;;;6.38;100.00;96365.38;5038783;28;20077;-52
2021/10/29 00:47:52;;;;;;;65.00;16.98;;;;;;;6.43;100.00;96370.25;5037162;28;21188;-54
2021/10/29 00:50:21;;;;;;;61.08;15.88;;;;;;;5.69;100.00;96372.50;5036994;28;20448;-54
2021/10/29 00:52:50;;;;;;;91.47;18.58;;;;;;;6.24;100.00;96365.66;5034858;28;20076;-56
2021/10/29 00:55:18;;;;;;;74.20;17.95;;;;;;;6.14;100.00;96368.13;5035500;28;20607;-57
2021/10/29 00:57:50;;;;;;;83.57;17.83;;;;;;;6.29;100.00;96355.63;5036885;28;20069;-49
2021/10/29 01:00:19;;;;;;;94.95;18.73;;;;;;;6.39;100.00;96351.31;5042032;28;20069;-54
2021/10/29 01:02:47;;;;;;;98.93;18.13;;;;;;;6.44;100.00;96350.97;5036375;28;20076;-54
2021/10/29 01:05:16;;;;;;;70.95;18.05;;;;;;;6.62;100.00;96346.88;5038821;28;20069;-55
2021/10/29 01:07:45;;;;;;;82.68;16.48;;;;;;;6.54;100.00;96340.59;5033878;28;20076;-57
2021/10/29 01:10:13;;;;;;;96.68;17.92;;;;;;;6.53;100.00;96345.00;5035231;28;20073;-54
2021/10/29 01:12:42;;;;;;;67.65;17.73;;;;;;;6.45;100.00;96338.72;5033999;28;20077;-54
2021/10/29 01:15:11;;;;;;;50.78;16.40;;;;;;;6.47;100.00;96342.03;5018153;28;20464;-55
2021/10/29 01:17:40;;;;;;;78.90;17.80;;;;;;;6.28;100.00;96343.50;5016669;28;20069;-56
2021/10/29 01:20:09;;;;;;;52.25;15.35;;;;;;;6.22;100.00;96340.53;5016411;28;20069;-56
2021/10/29 01:22:39;;;;;;;75.88;16.42;;;;;;;6.54;100.00;96336.19;5016019;28;20547;-59
2021/10/29 01:25:09;;;;;;;67.97;15.43;;;;;;;6.25;100.00;96337.66;5021938;28;20068;-58
2021/10/29 01:27:38;;;;;;;71.40;16.00;;;;;;;6.03;100.00;96334.13;5037715;28;20076;-54
2021/10/29 01:30:09;;;;;;;71.63;15.68;;;;;;;6.33;100.00;96320.41;5034083;28;20080;-55
2021/10/29 01:32:38;;;;;;;60.85;16.02;;;;;;;5.89;100.00;96327.31;5033704;28;20076;-55
2021/10/29 01:35:07;;;;;;;83.15;17.10;;;;;;;6.20;100.00;96317.09;5035742;28;20468;-55
2021/10/29 01:37:38;;;;;;;63.78;16.38;;;;;;;6.12;100.00;96309.00;5039084;28;20079;-55
2021/10/29 01:40:10;;;;;;;71.43;16.30;;;;;;;6.33;100.00;96311.69;5035145;28;20068;-59
2021/10/29 01:42:39;;;;;;;68.03;15.75;;;;;;;6.49;100.00;96313.94;5029098;28;20085;-54
2021/10/29 01:45:08;;;;;;;64.22;16.17;;;;;;;6.26;100.00;96303.50;5041531;28;20468;-53
2021/10/29 01:47:37;;;;;;;51.97;15.25;;;;;;;6.21;100.00;96315.31;5035351;28;20432;-56
2021/10/29 01:50:07;;;;;;;49.45;14.82;;;;;;;6.01;100.00;96303.78;5034447;28;20069;-50
2021/10/29 01:52:36;;;;;;;54.78;15.77;;;;;;;6.13;100.00;96305.44;5034876;28;20036;-56
2021/10/29 01:55:08;;;;;;;53.05;15.73;;;;;;;6.27;100.00;96299.94;5044647;28;20068;-56
2021/10/29 01:57:36;;;;;;;81.90;17.17;;;;;;;6.60;100.00;96291.16;5036499;28;20087;-55
2021/10/29 02:00:06;;;;;;;64.25;16.35;;;;;;;6.13;100.00;96287.13;5038254;28;20077;-56
2021/10/29 02:02:35;;;;;;;63.15;15.52;;;;;;;5.87;100.00;96292.56;5036434;28;20269;-55
2021/10/29 02:05:04;;;;;;;54.67;15.55;;;;;;;5.91;100.00;96293.16;5033205;28;20080;-57
2021/10/29 02:07:33;;;;;;;53.80;15.30;;;;;;;6.42;100.00;96285.59;5036802;28;20746;-54
2021/10/29 02:10:02;;;;;;;64.78;15.18;;;;;;;6.55;100.00;96292.50;5027809;28;20065;-54
2021/10/29 02:12:32;;;;;;;46.60;14.98;;;;;;;6.38;100.00;96286.81;5012516;28;20096;-55
2021/10/29 02:15:00;;;;;;;57.17;15.82;;;;;;;6.71;100.00;96285.06;5039909;28;20069;-55
2021/10/29 02:17:29;;;;;;;38.78;14.57;;;;;;;6.36;100.00;96285.25;5019492;28;20123;-57
2021/10/29 02:19:57;;;;;;;83.47;15.95;;;;;;;6.07;100.00;96283.19;5017543;28;20065;-54
2021/10/29 02:22:26;;;;;;;42.40;13.68;;;;;;;6.07;100.00;96277.13;5013094;28;20077;-58
2021/10/29 02:24:54;;;;;;;43.45;14.50;;;;;;;5.84;100.00;96274.47;5018550;28;20077;-56
2021/10/29 02:27:23;;;;;;;60.85;14.60;;;;;;;6.07;100.00;96266.66;5038276;28;20081;-52
2021/10/29 02:29:53;;;;;;;58.72;14.30;;;;;;;5.80;100.00;96267.84;5009442;28;20322;-56
2021/10/29 02:32:21;;;;;;;56.33;14.95;;;;;;;5.81;100.00;96272.09;5013491;28;20472;-54
2021/10/29 02:34:50;;;;;;;70.20;15.73;;;;;;;5.43;100.00;96270.66;5014833;28;20073;-55
2021/10/29 02:37:18;;;;;;;52.50;14.00;;;;;;;5.76;100.00;96258.56;5015378;28;20072;-57
2021/10/29 02:39:47;;;;;;;50.70;13.55;;;;;;;5.75;100.00;96259.53;5026508;28;20084;-56
2021/10/29 02:42:15;;;;;;;45.33;13.55;;;;;;;5.85;100.00;96260.47;5018123;28;20085;-56
2021/10/29 02:44:44;;;;;;;47.83;14.27;;;;;;;5.56;100.00;96267.13;5030855;28;20073;-58
2021/10/29 02:47:14;;;;;;;48.78;15.23;;;;;;;5.73;100.00;96269.25;5033546;28;20573;-53
2021/10/29 02:49:43;;;;;;;46.50;14.02;;;;;;;5.58;100.00;96270.47;5035029;28;20069;-54
2021/10/29 02:52:11;;;;;;;31.13;14.50;;;;;;;5.94;100.00;96267.59;5033096;28;20081;-57
2021/10/29 02:54:40;;;;;;;47.70;14.02;;;;;;;5.80;100.00;96270.44;5014016;28;20089;-54
2021/10/29 02:57:08;;;;;;;48.97;14.35;;;;;;;5.94;100.00;96269.41;5026782;28;20599;-58
2021/10/29 02:59:37;;;;;;;25.60;13.75;;;;;;;6.15;100.00;96277.34;5037490;28;20522;-53
2021/10/29 03:02:06;;;;;;;39.58;13.25;;;;;;;6.14;100.00;96273.88;5024801;28;20057;-54
2021/10/29 03:04:36;;;;;;;59.47;15.23;;;;;;;6.11;100.00;96265.44;5026421;28;20069;-56
2021/10/29 03:07:05;;;;;;;76.93;15.73;;;;;;;5.80;100.00;96267.84;5030544;28;20072;-54
2021/10/29 03:09:33;;;;;;;42.20;13.27;;;;;;;5.93;100.00;96259.88;5019305;28;20489;-55
2021/10/29 03:12:02;;;;;;;43.50;13.63;;;;;;;6.14;100.00;96262.59;5020093;28;20084;-56
2021/10/29 03:14:30;;;;;;;37.20;12.90;;;;;;;6.08;100.00;96256.03;5021839;28;20066;-54
2021/10/29 03:16:59;;;;;;;42.08;13.30;;;;;;;5.90;100.00;96254.88;5019708;28;20084;-56
2021/10/29 03:19:27;;;;;;;47.35;14.10;;;;;;;6.26;100.00;96253.75;5026466;28;20111;-51
2021/10/29 03:21:57;;;;;;;72.45;14.05;;;;;;;5.90;100.00;96250.47;5035238;28;20073;-55
2021/10/29 03:24:25;;;;;;;47.17;13.43;;;;;;;5.76;100.00;96242.88;5038010;28;20083;-56
2021/10/29 03:26:57;;;;;;;66.38;13.10;;;;;;;5.89;100.00;96235.72;5033759;28;20084;-58
2021/10/29 03:29:25;;;;;;;69.50;13.82;;;;;;;5.78;100.00;96234.88;5017740;28;20511;-55
2021/10/29 03:31:54;;;;;;;93.25;13.73;;;;;;;5.71;100.00;96237.16;5030758;28;20081;-53
2021/10/29 03:34:22;;;;;;;47.95;12.60;;;;;;;5.64;100.00;96239.44;5039473;28;20069;-53
2021/10/29 03:36:50;;;;;;;73.28;13.52;;;;;;;5.53;100.00;96242.03;5043294;28;20061;-52
2021/10/29 03:39:24;;;;;;;33.60;12.57;;;;;;;5.74;100.00;96234.28;5042836;28;20076;-55
2021/10/29 03:41:57;;;;;;;47.25;13.30;;;;;;;5.58;100.00;96229.44;5038515;28;21375;-53
2021/10/29 03:44:34;;;;;;;37.60;14.25;;;;;;;5.57;100.00;96227.75;5022789;28;20041;-57
2021/10/29 03:47:02;;;;;;;41.83;13.85;;;;;;;5.73;100.00;96214.31;5016191;28;20065;-56
2021/10/29 03:49:34;;;;;;;54.35;14.07;;;;;;;5.39;100.00;96222.19;5018697;28;20065;-55
2021/10/29 03:52:08;;;;;;;39.22;13.32;;;;;;;5.31;100.00;96221.13;5024199;28;20060;-56
2021/10/29 03:54:38;;;;;;;51.83;12.40;;;;;;;5.22;100.00;96214.81;5037858;28;20495;-54
2021/10/29 03:57:23;;;;;;;87.60;13.40;;;;;;;5.29;100.00;96218.59;5040162;28;20170;-54
2021/10/29 03:59:52;;;;;;;53.50;12.98;;;;;;;5.46;100.00;96231.22;5016368;28;20065;-55
2021/10/29 04:02:21;;;;;;;62.17;13.15;;;;;;;5.15;100.00;96227.50;5030619;28;20478;-55
2021/10/29 04:04:51;;;;;;;108.43;15.43;;;;;;;5.20;100.00;96220.16;5037085;28;20065;-56
2021/10/29 04:07:19;;;;;;;104.15;17.27;;;;;;;5.16;100.00;96217.88;5028086;28;20057;-55
2021/10/29 04:09:49;;;;;;;48.35;13.93;;;;;;;4.95;100.00;96229.00;5012816;28;20065;-54
2021/10/29 04:12:18;;;;;;;64.30;15.57;;;;;;;4.93;100.00;96225.69;5021738;28;20073;-56
2021/10/29 04:14:47;;;;;;;71.32;16.02;;;;;;;5.35;100.00;96212.91;5016003;28;20070;-55
2021/10/29 04:17:15;;;;;;;70.53;15.52;;;;;;;5.58;100.00;96208.53;5015630;28;20696;-52
2021/10/29 04:19:44;;;;;;;70.97;16.25;;;;;;;5.47;100.00;96209.38;5029729;28;20072;-56
2021/10/29 04:22:12;;;;;;;61.42;15.43;;;;;;;5.16;100.00;96212.66;5027236;28;20062;-54
2021/10/29 04:24:40;;;;;;;62.55;15.30;;;;;;;4.91;100.00;96211.06;5019556;28;20096;-57
2021/10/29 04:27:19;;;;;;;74.25;16.17;;;;;;;5.10;100.00;96213.16;5036047;28;20546;-58
2021/10/29 04:29:49;;;;;;;57.25;15.57;;;;;;;5.18;100.00;96210.78;5013558;28;20072;-58
2021/10/29 04:32:17;;;;;;;55.30;14.98;;;;;;;4.93;100.00;96204.78;5031718;28;20073;-58
2021/10/29 04:34:46;;;;;;;51.65;14.55;;;;;;;4.90;100.00;96204.19;5035902;28;20140;-57
2021/10/29 04:37:14;;;;;;;67.55;15.77;;;;;;;5.25;100.00;96198.88;5037676;28;20076;-57
2021/10/29 04:39:43;;;;;;;64.95;16.02;;;;;;;5.53;100.00;96191.50;5027704;28;20417;-55
2021/10/29 04:42:13;;;;;;;79.15;15.02;;;;;;;5.08;100.00;96199.34;5016292;28;20077;-57
2021/10/29 04:44:41;;;;;;;77.78;15.77;;;;;;;5.14;100.00;96198.88;5038432;28;20083;-57
2021/10/29 04:47:10;;;;;;;79.13;15.05;;;;;;;5.39;100.00;96198.66;5030639;28;20068;-56
2021/10/29 04:49:38;;;;;;;39.85;14.23;;;;;;;5.23;100.00;96185.13;5020622;28;20703;-55
2021/10/29 04:52:07;;;;;;;49.45;14.63;;;;;;;5.15;100.00;96192.69;5017828;28;20075;-54
2021/10/29 04:54:35;;;;;;;57.00;13.95;;;;;;;4.75;100.00;96186.13;5034916;28;20131;-52
2021/10/29 04:57:04;;;;;;;35.50;13.35;;;;;;;5.47;100.00;96183.22;5034689;28;20092;-50
2021/10/29 04:59:35;;;;;;;43.17;12.90;;;;;;;5.22;100.00;96181.66;5030937;28;20073;-49
2021/10/29 05:02:04;;;;;;;36.70;13.20;;;;;;;5.59;100.00;96183.19;5032049;28;20070;-55
2021/10/29 05:04:32;;;;;;;36.10;13.18;;;;;;;5.18;100.00;96187.25;5033827;28;20080;-54
2021/10/29 05:07:01;;;;;;;73.10;14.73;;;;;;;4.93;100.00;96181.28;5035249;28;20068;-54
2021/10/29 05:09:29;;;;;;;87.22;14.20;;;;;;;5.34;100.00;96181.66;5030109;28;20100;-50
2021/10/29 05:11:58;;;;;;;54.20;12.50;;;;;;;4.94;100.00;96179.50;5034349;28;20077;-54
2021/10/29 05:14:26;;;;;;;73.70;14.82;;;;;;;5.18;100.00;96175.00;5020642;27;20548;-56
2021/10/29 05:16:56;;;;;;;37.78;13.10;;;;;;;5.78;100.00;96167.72;5011075;28;20068;-55
2021/10/29 05:19:25;;;;;;;73.45;13.88;;;;;;;5.62;100.00;96167.25;5010534;28;20058;-54
2021/10/29 05:21:53;;;;;;;55.05;13.35;;;;;;;5.87;100.00;96169.56;5015691;28;20072;-56
2021/10/29 05:24:22;;;;;;;59.13;13.75;;;;;;;5.60;100.00;96166.53;5034879;28;20076;-51
2021/10/29 05:26:51;;;;;;;63.22;14.50;;;;;;;5.33;100.00;96157.28;5030346;28;20405;-58
2021/10/29 05:29:19;;;;;;;60.97;13.40;;;;;;;5.80;100.00;96160.56;5021059;28;20101;-57
2021/10/29 05:31:48;;;;;;;56.28;14.25;;;;;;;5.50;100.00;96158.59;5028081;28;20524;-59
2021/10/29 05:34:17;;;;;;;56.35;14.65;;;;;;;5.46;100.00;96162.41;5035904;28;20065;-59
2021/10/29 05:36:48;;;;;;;47.90;14.10;;;;;;;5.37;100.00;96161.34;5033368;28;20080;-58
2021/10/29 05:39:16;;;;;;;46.17;13.73;;;;;;;5.55;100.00;96168.69;5041340;28;20080;-60
2021/10/29 05:41:48;;;;;;;86.18;15.90;;;;;;;5.47;100.00;96164.03;5036475;28;20072;-59
2021/10/29 05:44:17;;;;;;;80.57;15.70;;;;;;;5.48;100.00;96170.97;5031541;28;20065;-60
2021/10/29 05:46:47;;;;;;;61.13;16.75;;;;;;;5.84;100.00;96169.81;5031091;28;20069;-60
2021/10/29 05:49:18;;;;;;;53.85;14.57;;;;;;;5.82;100.00;96174.34;5032212;28;20068;-60
2021/10/29 05:51:48;;;;;;;42.55;14.15;;;;;;;5.77;100.00;96170.44;5035924;28;20069;-59
2021/10/29 05:57:07;;;;;;;44.90;13.57;;;;;;;6.21;100.00;96172.13;5021598;28;20392;-59
2021/10/29 05:59:36;;;;;;;40.22;14.88;;;;;;;6.28;100.00;96165.44;5030822;28;20073;-58
2021/10/29 06:02:05;;;;;;;56.72;16.13;;;;;;;6.25;100.00;96173.53;5034732;28;20073;-58
2021/10/29 06:04:35;;;;;;;95.80;17.75;;;;;;;6.18;100.00;96175.81;5031681;28;20484;-59
2021/10/29 06:07:04;;;;;;;65.03;16.30;;;;;;;6.14;100.00;96168.34;5033763;28;20076;-59
2021/10/29 06:09:32;;;;;;;80.93;18.17;;;;;;;6.16;100.00;96164.66;5030296;28;20084;-59
2021/10/29 06:12:01;;;;;;;69.35;17.38;;;;;;;6.22;100.00;96173.78;5039536;28;20080;-60
2021/10/29 06:14:30;;;;;;;67.68;18.45;;;;;;;5.87;100.00;96171.38;5028458;28;20073;-60
2021/10/29 06:16:58;;;;;;;67.40;16.75;;;;;;;5.97;100.00;96169.72;5044852;28;20109;-59
2021/10/29 06:19:27;;;;;;;46.22;17.80;;;;;;;6.40;100.00;96177.53;5034518;28;20096;-60
2021/10/29 06:22:00;;;;;;;56.95;19.13;;;;;;;6.49;100.00;96173.31;5038178;28;20068;-59
2021/10/29 06:24:29;;;;;;;79.38;19.77;;;;;;;6.09;100.00;96176.59;5026792;28;20103;-60
2021/10/29 06:27:02;;;;;;;67.25;19.25;;;;;;;6.42;100.00;96175.59;5036664;28;20088;-59
2021/10/29 06:29:30;;;;;;;37.97;17.23;;;;;;;6.58;100.00;96177.81;5035888;28;20219;-59
2021/10/29 06:31:58;;;;;;;50.13;17.67;;;;;;;6.46;100.00;96175.34;5039252;28;20073;-59
2021/10/29 06:34:27;;;;;;;98.93;19.02;;;;;;;6.31;100.00;96175.66;5034915;28;20075;-60
2021/10/29 06:36:57;;;;;;;48.28;16.80;;;;;;;6.28;100.00;96175.91;5044943;28;20080;-57
2021/10/29 06:39:25;;;;;;;59.42;17.45;;;;;;;6.28;100.00;96173.28;5038168;28;20084;-58
2021/10/29 06:41:55;;;;;;;47.80;17.52;;;;;;;6.07;100.00;96188.94;5037472;28;20266;-60
2021/10/29 06:44:31;;;;;;;108.80;19.27;;;;;;;5.89;100.00;96196.47;5038969;28;20535;-59
2021/10/29 06:47:34;;;;;;;65.28;18.52;;;;;;;6.03;100.00;96195.41;5037825;28;20073;-56
2021/10/29 07:01:12;;;;;;;49.33;18.65;;;;;;;6.46;100.00;96188.44;5042243;28;20060;-58
2021/10/29 07:12:14;;;;;;;95.43;19.02;;;;;;;5.94;100.00;96204.78;5030469;28;20341;-59
2021/10/29 07:42:52;;;;;;;30.52;16.58;;;;;;;6.87;100.00;96192.88;5029715;28;20049;-55
2021/10/29 07:45:22;;;;;;;33.45;15.38;;;;;;;6.94;100.00;96191.41;5037010;28;20085;-56
2021/10/29 07:47:51;;;;;;;40.53;16.75;;;;;;;7.09;100.00;96198.00;5009412;28;20065;-59
2021/10/29 07:50:20;;;;;;;32.88;16.50;;;;;;;7.30;100.00;96199.75;5032657;28;20120;-55
2021/10/29 07:52:51;;;;;;;42.35;16.63;;;;;;;7.33;100.00;96205.56;5032096;28;20046;-59
2021/10/29 07:55:21;;;;;;;32.80;16.92;;;;;;;7.20;100.00;96197.09;5023322;28;20085;-58
2021/10/29 07:57:51;;;;;;;36.65;17.42;;;;;;;7.49;100.00;96201.63;5017753;28;20072;-58
2021/10/29 08:00:21;;;;;;;39.85;17.85;;;;;;;7.66;100.00;96201.00;5016194;28;20076;-55
2021/10/29 08:02:51;;;;;;;29.77;16.73;;;;;;;7.57;100.00;96196.53;5040247;28;20497;-59
2021/10/29 08:05:20;;;;;;;40.60;17.52;;;;;;;7.17;100.00;96210.44;5034199;28;20460;-56
2021/10/29 08:07:49;;;;;;;38.03;15.68;;;;;;;7.09;100.00;96213.72;5035047;28;20076;-58
2021/10/29 08:10:18;;;;;;;35.70;16.13;;;;;;;7.28;100.00;96210.38;5036778;28;20080;-59
2021/10/29 08:12:46;;;;;;;39.05;17.17;;;;;;;7.65;100.00;96212.47;5043313;28;20091;-59
2021/10/29 08:15:16;;;;;;;45.90;16.45;;;;;;;7.53;100.00;96210.88;5039207;28;20085;-58
2021/10/29 08:17:45;;;;;;;43.20;18.20;;;;;;;7.66;100.00;96213.28;5032361;28;20092;-59
2021/10/29 08:20:16;;;;;;;42.35;17.13;;;;;;;7.60;100.00;96219.91;5034742;28;20085;-56
2021/10/29 08:22:44;;;;;;;39.97;17.45;;;;;;;7.69;100.00;96213.84;5028376;28;20045;-60
2021/10/29 08:25:14;;;;;;;36.30;17.25;;;;;;;7.46;100.00;96215.00;5039386;28;20534;-58
2021/10/29 08:27:42;;;;;;;49.70;17.20;;;;;;;7.36;100.00;96220.19;5038493;28;20095;-57
2021/10/29 08:30:17;;;;;;;27.30;16.38;;;;;;;7.43;100.00;96216.09;5049065;28;20100;-57
2021/10/29 08:32:47;;;;;;;52.13;16.40;;;;;;;7.14;100.00;96221.19;5047437;28;20068;-57
2021/10/29 08:35:17;;;;;;;36.03;16.25;;;;;;;7.83;100.00;96221.34;5037575;28;20531;-56
2021/10/29 08:37:46;;;;;;;41.10;15.88;;;;;;;7.23;100.00;96219.59;5029226;28;20071;-59
2021/10/29 08:40:15;;;;;;;32.77;15.63;;;;;;;7.53;100.00;96203.00;5037751;28;20065;-57
2021/10/29 08:42:45;;;;;;;37.72;15.55;;;;;;;7.43;100.00;96212.63;5028192;28;20100;-60
2021/10/29 08:45:13;;;;;;;27.38;14.80;;;;;;;7.66;100.00;96208.03;5030926;28;20079;-59
2021/10/29 08:47:44;;;;;;;35.22;17.02;;;;;;;7.83;100.00;96210.03;5035479;28;20092;-60
2021/10/29 08:50:14;;;;;;;28.83;18.50;;;;;;;8.64;100.00;96208.13;5041172;28;20483;-59
2021/10/29 08:52:44;;;;;;;38.10;16.23;;;;;;;8.71;100.00;96203.13;5043432;28;20048;-59
2021/10/29 08:55:14;;;;;;;25.05;17.40;;;;;;;9.13;100.00;96194.91;5028467;28;20087;-62
2021/10/29 08:57:47;;;;;;;31.48;16.85;;;;;;;8.40;100.00;96202.44;5037235;28;20528;-59
2021/10/29 09:00:17;;;;;;;39.20;21.33;;;;;;;8.25;100.00;96202.78;5040354;28;20081;-58
2021/10/29 09:02:57;;;;;;;27.27;14.38;;;;;;;7.68;100.00;96204.34;5028147;28;20057;-59
2021/10/29 09:05:31;;;;;;;26.55;14.57;;;;;;;7.84;100.00;96194.16;5038194;28;20440;-59
2021/10/29 09:08:08;;;;;;;24.85;14.23;;;;;;;8.02;100.00;96191.72;5035529;28;20066;-59
2021/10/29 09:10:59;;;;;;;25.52;14.70;;;;;;;7.57;100.00;96201.78;5023709;28;20077;-59
2021/10/29 09:16:45;;;;;;;30.17;12.77;;;;;;;7.88;100.00;96197.34;5024378;28;20068;-57
2021/10/29 09:31:24;;;;;;;23.88;14.35;;;;;;;8.61;100.00;96195.25;5001700;28;20056;-61
2021/10/29 09:33:54;;;;;;;21.10;13.43;;;;;;;8.33;100.00;96194.25;5030431;28;20057;-60
2021/10/29 09:36:31;;;;;;;20.20;14.13;;;;;;;8.92;100.00;96198.53;5044231;28;20088;-59
2021/10/29 09:39:03;;;;;;;18.27;12.25;;;;;;;8.85;100.00;96197.44;5028859;28;20083;-59
2021/10/29 09:41:31;;;;;;;15.70;12.70;;;;;;;8.61;100.00;96195.25;5027951;28;20428;-59
2021/10/29 09:44:01;;;;;;;17.80;11.63;;;;;;;8.63;100.00;96187.22;5026956;28;20065;-61
2021/10/29 09:46:40;;;;;;;15.48;12.18;;;;;;;7.63;100.00;96200.44;5037965;28;20060;-59
2021/10/29 09:49:16;;;;;;;20.27;12.02;;;;;;;7.52;100.00;96189.06;5040115;28;20550;-60
2021/10/29 09:51:54;;;;;;;15.07;11.90;;;;;;;8.58;100.00;96195.53;5042497;28;21456;-59
2021/10/29 09:54:33;;;;;;;18.17;11.52;;;;;;;8.30;100.00;96176.94;5042679;28;20081;-59
2021/10/29 09:57:02;;;;;;;16.38;12.07;;;;;;;7.66;100.00;96182.63;5039090;28;20065;-56
2021/10/29 09:59:35;;;;;;;16.45;12.60;;;;;;;8.21;100.00;96190.06;5010010;28;20069;-59
2021/10/29 10:02:05;;;;;;;14.13;11.75;;;;;;;8.77;100.00;96190.25;5034613;28;20376;-57
2021/10/29 10:04:35;;;;;;;15.73;12.70;;;;;;;8.54;100.00;96192.34;5039261;28;20468;-57
2021/10/29 10:07:06;;;;;;;18.70;12.73;;;;;;;7.86;100.00;96186.16;5041143;28;20080;-60
2021/10/29 10:09:34;;;;;;;14.82;12.23;;;;;;;8.14;100.00;96181.91;5026564;28;20093;-59
2021/10/29 10:12:04;;;;;;;17.45;13.05;;;;;;;8.40;100.00;96178.81;5029799;28;20073;-60
2021/10/29 10:14:33;;;;;;;18.95;12.10;;;;;;;8.25;100.00;96173.88;5033154;28;20086;-59
2021/10/29 10:17:02;;;;;;;17.48;13.27;;;;;;;8.72;100.00;96173.25;5041509;28;20121;-60
2021/10/29 10:19:30;;;;;;;16.42;12.70;;;;;;;8.80;100.00;96168.09;5022260;28;20069;-60
2021/10/29 10:22:00;;;;;;;17.25;13.25;;;;;;;8.12;100.00;96170.72;5014793;28;20061;-60
2021/10/29 10:24:32;;;;;;;16.33;12.48;;;;;;;8.11;100.00;96176.09;5026178;28;20088;-61
2021/10/29 10:30:06;;;;;;;16.13;13.15;;;;;;;8.74;100.00;96161.63;5007331;28;20093;-55
2021/10/29 10:40:58;;;;;;;17.35;14.30;;;;;;;8.87;100.00;96168.38;5017772;28;20069;-57
2021/10/29 10:43:57;;;;;;;16.80;13.77;;;;;;;9.27;100.00;96154.97;5007080;28;20073;-60
2021/10/29 10:46:26;;;;;;;17.52;13.50;;;;;;;9.03;100.00;96155.47;5020910;28;20068;-58
2021/10/29 10:49:02;;;;;;;15.38;12.65;;;;;;;8.98;100.00;96155.03;5026868;28;20097;-57
2021/10/29 10:51:44;;;;;;;20.15;13.52;;;;;;;9.42;100.00;96155.31;5033279;28;20089;-60
2021/10/29 10:54:25;;;;;;;16.40;12.85;;;;;;;9.34;100.00;96155.22;5028812;28;20083;-56
2021/10/29 10:59:55;;;;;;;18.08;13.35;;;;;;;8.68;100.00;96154.28;5026784;28;20072;-59
2021/10/29 11:02:57;;;;;;;16.52;12.32;;;;;;;8.94;100.00;96151.06;5011170;28;20080;-60
2021/10/29 11:11:14;;;;;;;20.00;14.50;;;;;;;9.32;100.00;96129.03;5030220;28;20529;-60
2021/10/29 11:13:53;;;;;;;20.92;17.67;;;;;;;9.70;100.00;96135.09;5037142;28;20080;-61
2021/10/29 11:16:35;;;;;;;19.38;14.68;;;;;;;9.45;100.00;96128.72;5036307;28;20071;-59
2021/10/29 11:19:08;;;;;;;24.30;17.60;;;;;;;9.65;100.00;96119.75;5024929;28;20469;-58
2021/10/29 11:21:46;;;;;;;19.23;14.77;;;;;;;10.15;100.00;96121.94;5014292;28;20076;-60
2021/10/29 11:24:17;;;;;;;20.38;14.85;;;;;;;9.65;100.00;96121.56;5023392;28;20075;-60
2021/10/29 11:26:47;;;;;;;20.52;15.95;;;;;;;10.53;100.00;96113.88;5012760;28;20065;-58
2021/10/29 11:29:17;;;;;;;;;;;;;;;10.44;100.00;96113.81;5022838;28;20053;-60
2021/10/29 11:31:48;;;;;;;19.65;13.88;;;;;;;10.59;100.00;96108.81;5027590;28;20468;-60
2021/10/29 11:34:17;;;;;;;20.25;15.27;;;;;;;10.80;100.00;96097.09;5022623;28;20499;-59
2021/10/29 11:36:49;;;;;;;22.02;15.38;;;;;;;10.90;100.00;96100.47;5021012;28;20088;-59
2021/10/29 11:39:19;;;;;;;20.75;15.05;;;;;;;11.00;100.00;96105.63;5019125;28;20450;-59
2021/10/29 11:41:49;;;;;;;20.92;15.48;;;;;;;9.92;100.00;96111.00;5042442;28;20068;-58
2021/10/29 11:44:20;;;;;;;20.98;15.98;;;;;;;10.62;100.00;96094.50;5020928;28;20073;-60
2021/10/29 11:46:50;;;;;;;21.08;15.15;;;;;;;10.96;100.00;96089.28;5023095;28;20543;-60
2021/10/29 11:49:23;;;;;;;18.95;15.00;;;;;;;10.99;100.00;96099.53;5029805;28;20073;-59
2021/10/29 11:51:53;;;;;;;18.70;14.57;;;;;;;10.34;100.00;96097.25;5032861;28;20076;-58
2021/10/29 11:54:24;;;;;;;18.50;14.27;;;;;;;10.02;100.00;96092.50;5031703;28;20065;-60
2021/10/29 11:57:04;;;;;;;;;;;;;;;10.16;100.00;96089.31;5036772;28;21337;-60
2021/10/29 11:59:55;;;;;;;18.40;14.18;;;;;;;10.50;100.00;96079.94;5041027;28;19951;-61
2021/10/29 12:07:52;;;;;;;18.48;14.23;;;;;;;10.50;100.00;96083.38;5020665;28;20136;-60
2021/10/29 12:10:22;;;;;;;18.55;14.85;;;;;;;10.80;100.00;96074.19;5043339;28;20063;-59
2021/10/29 12:12:56;;;;;;;18.48;12.93;;;;;;;10.46;100.00;96071.50;5031615;28;20061;-59
2021/10/29 12:15:26;;;;;;;39.35;22.80;;;;;;;10.69;100.00;96069.16;5031340;28;20109;-60
2021/10/29 12:17:57;;;;;;;;;;;;;;;10.72;100.00;96060.94;5029009;28;20336;-60
2021/10/29 12:20:28;;;;;;;;;;;;;;;9.93;100.00;96077.59;5028551;28;19956;-61
2021/10/29 12:23:00;;;;;;;18.15;13.48;;;;;;;10.20;100.00;96071.41;5028313;28;19955;-59
2021/10/29 12:25:34;;;;;;;19.05;14.57;;;;;;;10.73;100.00;96059.13;5028781;28;20080;-60
2021/10/29 12:28:06;;;;;;;17.20;13.73;;;;;;;11.06;100.00;96046.97;5023330;28;20061;-59
2021/10/29 12:30:40;;;;;;;16.58;13.25;;;;;;;10.91;100.00;96036.19;5010251;28;20452;-59
2021/10/29 12:33:37;;;;;;;19.17;14.80;;;;;;;11.26;100.00;96037.81;5044159;28;20056;-58
2021/10/29 12:53:25;;;;;;;20.95;15.25;;;;;;;11.15;100.00;96032.84;5019225;28;20069;-59
2021/10/29 12:59:01;;;;;;;19.95;15.38;;;;;;;10.79;100.00;96021.59;5019115;28;20072;-59
2021/10/29 13:01:35;;;;;;;20.77;15.32;;;;;;;10.83;100.00;96021.13;5025119;28;20065;-57
2021/10/29 13:04:08;;;;;;;19.88;15.43;;;;;;;10.76;100.00;96020.09;5028130;28;20069;-60
2021/10/29 13:06:39;;;;;;;20.10;15.23;;;;;;;10.40;100.00;96029.94;5033849;28;20081;-60
2021/10/29 13:09:13;;;;;;;19.92;15.43;;;;;;;11.00;100.00;96024.66;5043895;28;20081;-58
2021/10/29 13:11:47;;;;;;;22.38;15.85;;;;;;;11.26;100.00;96015.88;5042878;27;20538;-59
2021/10/29 13:14:21;;;;;;;20.05;15.18;;;;;;;10.36;100.00;96024.16;5041422;28;20084;-59
2021/10/29 13:16:50;;;;;;;22.05;16.70;;;;;;;10.60;100.00;96012.94;5033479;28;20065;-59
2021/10/29 13:19:53;;;;;;;20.83;15.93;;;;;;;10.93;100.00;96010.47;5034022;28;20080;-59
2021/10/29 13:36:32;;;;;;;22.13;15.35;;;;;;;10.93;100.00;96006.00;5032669;28;20089;-60
2021/10/29 13:50:32;;;;;;;21.10;16.38;;;;;;;10.49;100.00;96005.25;5038826;28;20077;-58